Time;durP1;ratioP1;P1;durP2;ratioP2;P2;SDS_P1;SDS_P2;PMS_P1;PMS_P2;Temp;Humidity;BMP_temperature;BMP_pressure;BME280_temperature;BME280_humidity;BME280_pressure;Samples;Min_cycle;Max_cycle;Signal;HPM_P1;HPM_P2
2022/11/12 00:00:58;;;;;;;10.23;5.90;;;11.20;74.70;;;13.95;55.11;103076.75;5095693;28;20684;-57
2022/11/12 00:03:27;;;;;;;9.27;6.67;;;11.30;74.80;;;13.96;54.96;103076.59;5094434;28;20246;-58
2022/11/12 00:05:54;;;;;;;7.67;6.73;;;11.20;74.60;;;13.97;55.04;103080.94;5096243;28;20249;-57
2022/11/12 00:08:21;;;;;;;11.40;7.20;;;11.30;74.70;;;13.97;54.91;103077.44;5096064;28;20204;-56
2022/11/12 00:10:49;;;;;;;8.80;6.50;;;11.20;74.70;;;13.98;54.97;103079.09;5094990;28;20220;-57
2022/11/12 00:13:16;;;;;;;15.27;8.23;;;11.20;74.80;;;13.97;54.86;103082.75;5092143;28;20638;-57
2022/11/12 00:15:45;;;;;;;9.43;7.27;;;11.30;74.70;;;13.96;54.91;103081.06;5106502;28;20196;-60
2022/11/12 00:18:12;;;;;;;10.63;7.67;;;11.20;74.40;;;13.93;54.83;103087.47;5103412;28;20219;-59
2022/11/12 00:20:41;;;;;;;8.40;6.33;;;11.20;74.40;;;13.90;54.78;103086.94;5094887;28;20215;-56
2022/11/12 00:23:08;;;;;;;9.17;5.97;;;11.20;74.40;;;13.89;54.82;103085.25;5095868;28;20250;-58
2022/11/12 00:25:35;;;;;;;7.00;6.00;;;11.20;74.50;;;13.87;54.83;103082.75;5095549;28;20192;-56
2022/11/12 00:28:05;;;;;;;9.63;6.43;;;11.10;74.40;;;13.87;54.82;103084.53;5095096;28;20226;-56
2022/11/12 00:30:32;;;;;;;12.53;8.07;;;11.10;74.50;;;13.81;54.85;103087.75;5095660;28;20686;-56
2022/11/12 00:33:01;;;;;;;8.37;6.47;;;11.10;74.40;;;13.79;55.01;103084.38;5094330;28;20344;-58
2022/11/12 00:35:30;;;;;;;9.90;6.93;;;11.00;74.60;;;13.79;54.93;103084.38;5078614;28;20314;-55
2022/11/12 00:37:59;;;;;;;9.47;6.93;;;11.00;74.90;;;13.79;55.04;103090.53;5075374;28;20214;-57
2022/11/12 00:40:28;;;;;;;13.67;6.90;;;11.00;75.00;;;13.82;55.35;103092.06;5078306;28;20195;-55
2022/11/12 00:42:55;;;;;;;9.07;6.83;;;11.00;75.30;;;13.83;54.99;103088.44;5094755;28;20591;-58
2022/11/12 00:45:22;;;;;;;11.43;6.90;;;11.10;75.00;;;13.82;55.05;103094.72;5095803;28;20196;-57
2022/11/12 00:47:53;;;;;;;10.70;6.77;;;11.00;74.90;;;13.82;55.09;103100.00;5095462;28;20710;-59
2022/11/12 00:50:20;;;;;;;8.83;7.23;;;11.10;75.00;;;13.83;55.33;103096.38;5093362;28;20189;-59
2022/11/12 00:52:47;;;;;;;9.13;6.60;;;11.10;75.20;;;13.82;55.21;103094.72;5095075;28;20224;-58
2022/11/12 00:55:15;;;;;;;8.00;6.90;;;11.00;75.00;;;13.82;55.18;103081.47;5095524;28;20192;-57
2022/11/12 00:57:42;;;;;;;11.70;6.30;;;11.10;75.10;;;13.84;55.36;103088.31;5093931;28;20583;-57
2022/11/12 01:00:15;;;;;;;9.87;7.43;;;11.10;75.20;;;13.85;55.17;103084.69;5095198;28;20245;-56
2022/11/12 01:02:42;;;;;;;7.97;7.00;;;11.10;75.20;;;13.86;54.96;103080.25;5095408;28;20607;-58
2022/11/12 01:05:17;;;;;;;7.77;6.57;;;11.10;74.90;;;13.86;54.89;103085.53;5095028;28;20199;-56
2022/11/12 01:07:44;;;;;;;9.13;6.27;;;11.10;74.80;;;13.86;55.00;103086.34;5083502;28;20197;-55
2022/11/12 01:10:13;;;;;;;6.93;6.23;;;11.00;74.70;;;13.87;54.85;103087.19;5074761;28;20189;-56
2022/11/12 01:12:41;;;;;;;12.23;7.47;;;11.00;74.60;;;13.85;54.81;103083.84;5074080;28;20213;-57
2022/11/12 01:15:09;;;;;;;10.70;6.73;;;11.10;74.80;;;13.84;54.75;103093.59;5097512;28;20196;-57
2022/11/12 01:17:36;;;;;;;9.60;7.07;;;11.00;74.70;;;13.83;54.86;103099.88;5109012;28;20193;-58
2022/11/12 01:20:04;;;;;;;10.63;7.67;;;11.00;74.60;;;13.80;54.65;103096.66;5094387;28;20679;-57
2022/11/12 01:22:31;;;;;;;7.10;6.40;;;11.00;74.40;;;13.75;54.76;103086.50;5094294;28;20204;-58
2022/11/12 01:24:58;;;;;;;10.13;6.77;;;11.00;74.30;;;13.71;54.92;103102.78;5093300;28;20196;-56
2022/11/12 01:27:25;;;;;;;10.33;7.20;;;10.90;74.20;;;13.67;54.88;103088.16;5082903;28;20197;-57
2022/11/12 01:29:53;;;;;;;8.70;7.03;;;10.90;74.40;;;13.67;55.13;103101.38;5074093;28;20197;-56
2022/11/12 01:32:20;;;;;;;10.33;7.50;;;10.90;74.80;;;13.66;54.78;103083.81;5073825;28;20206;-56
2022/11/12 01:34:49;;;;;;;8.53;7.70;;;10.90;74.50;;;13.64;54.67;103085.78;5074218;28;20185;-56
2022/11/12 01:37:16;;;;;;;7.37;6.30;;;10.90;74.30;;;13.60;54.82;103084.38;5074657;28;20265;-56
2022/11/12 01:39:43;;;;;;;10.37;7.63;;;10.80;74.30;;;13.58;55.04;103093.28;5074852;28;20192;-57
2022/11/12 01:42:11;;;;;;;8.73;6.60;;;10.80;74.60;;;13.59;54.75;103094.13;5080481;28;20278;-58
2022/11/12 01:44:43;;;;;;;9.77;7.00;;;10.80;74.50;;;13.54;54.63;103085.75;5074144;28;20193;-58
2022/11/12 01:47:18;;;;;;;9.70;7.47;;;10.80;74.30;;;13.51;55.08;103092.16;5076358;28;20185;-58
2022/11/12 01:49:54;;;;;;;8.30;7.10;;;10.80;74.60;;;13.48;54.99;103089.78;5094658;28;20304;-57
2022/11/12 01:52:30;;;;;;;7.60;6.73;;;10.70;74.40;;;13.42;54.50;103092.97;5094356;28;20220;-57
2022/11/12 01:55:05;;;;;;;7.47;6.70;;;10.70;74.10;;;13.35;55.05;103091.84;5094086;28;20226;-59
2022/11/12 01:57:38;;;;;;;8.10;6.47;;;10.70;74.30;;;13.30;54.81;103098.50;5097849;28;20193;-55
2022/11/12 02:00:09;;;;;;;8.27;6.50;;;10.60;74.10;;;13.24;55.15;103099.03;5076517;28;21662;-55
2022/11/12 02:02:39;;;;;;;8.63;6.00;;;10.60;74.30;;;13.22;55.40;103096.50;5093797;28;20208;-57
2022/11/12 02:05:09;;;;;;;9.50;5.87;;;10.60;74.60;;;13.21;55.32;103094.84;5093976;28;20180;-57
2022/11/12 02:07:41;;;;;;;9.90;6.90;;;10.50;74.60;;;13.19;55.27;103091.47;5093846;28;20185;-57
2022/11/12 02:10:09;;;;;;;7.70;6.63;;;10.50;74.70;;;13.18;55.36;103095.09;5094153;28;20230;-56
2022/11/12 02:15:22;;;;;;;8.27;6.50;;;10.50;75.00;;;13.14;55.30;103092.88;5098839;28;20213;-59
2022/11/12 02:17:51;;;;;;;7.30;6.30;;;10.40;74.60;;;13.09;55.24;103092.44;5106182;28;20273;-55
2022/11/12 02:20:19;;;;;;;7.23;6.23;;;10.40;74.70;;;13.01;55.42;103093.03;5093237;28;20222;-61
2022/11/12 02:22:47;;;;;;;7.57;6.80;;;10.40;74.70;;;12.92;55.72;103088.56;5093477;28;20665;-58
2022/11/12 02:25:21;;;;;;;8.00;5.50;;;10.30;74.70;;;12.85;55.72;103092.69;5093635;28;20310;-56
2022/11/12 02:27:52;;;;;;;7.43;6.57;;;10.30;74.80;;;12.82;55.83;103087.66;5093839;28;20572;-58
2022/11/12 02:30:30;;;;;;;10.60;6.37;;;10.20;74.90;;;12.77;56.06;103084.56;5084057;28;20189;-57
2022/11/12 02:32:57;;;;;;;7.03;5.93;;;10.20;75.10;;;12.72;56.23;103092.06;5092076;28;20273;-55
2022/11/12 02:35:24;;;;;;;9.80;5.97;;;10.10;75.10;;;12.68;56.02;103090.66;5093866;28;20215;-57
2022/11/12 02:37:53;;;;;;;7.77;5.93;;;10.10;75.30;;;12.62;56.09;103077.97;5093743;28;20187;-59
2022/11/12 02:40:20;;;;;;;9.87;7.00;;;10.00;75.30;;;12.57;56.25;103082.81;5093390;28;20188;-55
2022/11/12 02:42:47;;;;;;;9.53;6.30;;;10.00;75.30;;;12.53;56.47;103089.28;5093760;28;20213;-57
2022/11/12 02:45:15;;;;;;;7.33;6.00;;;10.00;75.40;;;12.54;56.68;103088.34;5092248;28;20192;-58
2022/11/12 02:47:42;;;;;;;6.80;5.40;;;9.90;76.60;;;12.55;56.38;103085.56;5085963;28;20201;-58
2022/11/12 02:50:10;;;;;;;7.47;6.00;;;9.90;76.70;;;12.55;56.34;103088.19;5092915;28;20196;-59
2022/11/12 02:52:38;;;;;;;8.47;6.53;;;9.90;76.60;;;12.57;56.34;103082.81;5093045;28;20269;-58
2022/11/12 02:55:08;;;;;;;9.80;6.23;;;9.90;76.70;;;12.61;56.43;103077.13;5093601;28;20726;-58
2022/11/12 02:57:37;;;;;;;5.83;5.20;;;9.90;76.90;;;12.65;56.25;103075.88;5093218;28;20200;-58
2022/11/12 03:00:09;;;;;;;11.33;6.30;;;9.90;77.00;;;12.71;55.94;103071.91;5095726;28;20192;-57
2022/11/12 03:02:42;;;;;;;6.83;6.00;;;9.90;77.00;;;12.69;56.13;103077.28;5093836;28;20216;-58
2022/11/12 03:05:10;;;;;;;7.37;6.23;;;9.90;76.70;;;12.70;55.99;103078.97;5097733;28;20267;-57
2022/11/12 03:07:37;;;;;;;7.80;6.37;;;10.00;75.80;;;12.74;56.25;103080.38;5097037;28;20197;-57
2022/11/12 03:10:07;;;;;;;7.60;6.70;;;10.00;76.20;;;12.80;56.20;103073.75;5097308;28;20599;-57
2022/11/12 03:12:34;;;;;;;8.20;6.27;;;10.00;76.10;;;12.81;55.98;103075.44;5095831;28;20266;-58
2022/11/12 03:15:01;;;;;;;8.33;6.27;;;10.00;75.60;;;12.82;55.66;103077.09;5106937;28;20245;-58
2022/11/12 03:17:29;;;;;;;9.03;6.40;;;10.00;75.60;;;12.85;55.78;103082.97;5106669;28;20205;-58
2022/11/12 03:19:56;;;;;;;8.37;6.10;;;10.10;75.80;;;12.86;55.61;103095.19;5085962;28;20193;-57
2022/11/12 03:22:22;;;;;;;5.93;5.33;;;10.10;76.30;;;12.88;55.89;103089.81;5076092;28;20296;-56
2022/11/12 03:24:49;;;;;;;6.90;5.63;;;10.10;75.60;;;12.88;55.83;103095.09;5076819;28;20193;-56
2022/11/12 03:27:18;;;;;;;8.80;7.27;;;10.10;76.20;;;12.88;55.76;103103.81;5077041;28;20215;-58
2022/11/12 03:29:45;;;;;;;8.93;6.20;;;10.10;75.30;;;12.90;55.75;103096.63;5076825;28;20642;-57
2022/11/12 03:32:12;;;;;;;7.43;5.77;;;10.10;75.10;;;12.91;55.83;103097.44;5091598;28;20254;-58
2022/11/12 03:34:39;;;;;;;7.87;6.23;;;10.10;75.20;;;12.86;55.41;103089.91;5077769;28;20258;-57
2022/11/12 03:37:08;;;;;;;7.47;6.20;;;10.10;74.40;;;12.75;55.22;103097.09;5094327;28;20218;-57
2022/11/12 03:39:35;;;;;;;6.93;6.17;;;10.10;74.20;;;12.61;55.13;103094.78;5097103;28;20552;-56
2022/11/12 03:42:02;;;;;;;6.73;5.80;;;10.00;74.00;;;12.51;55.83;103088.59;5096599;28;20209;-57
2022/11/12 03:44:31;;;;;;;7.67;5.80;;;9.90;75.30;;;12.36;55.88;103089.88;5096799;28;20659;-59
2022/11/12 03:46:58;;;;;;;7.67;6.17;;;9.90;75.50;;;12.28;55.81;103094.97;5096825;28;20202;-58
2022/11/12 03:49:25;;;;;;;8.33;6.63;;;9.70;75.70;;;12.27;56.47;103088.00;5102420;28;20212;-58
2022/11/12 03:51:52;;;;;;;7.23;6.00;;;9.70;76.60;;;12.30;56.66;103085.09;5085203;28;20221;-59
2022/11/12 03:54:19;;;;;;;8.10;6.60;;;9.70;76.90;;;12.27;56.08;103091.47;5099413;28;20250;-58
2022/11/12 03:56:46;;;;;;;7.57;6.33;;;9.60;76.30;;;12.22;56.12;103083.94;5103331;28;20201;-58
2022/11/12 03:59:12;;;;;;;7.13;5.57;;;9.60;76.20;;;12.19;56.61;103089.47;5103294;28;20195;-58
2022/11/12 04:01:41;;;;;;;7.20;5.30;;;9.60;76.70;;;12.19;56.77;103086.81;5103064;28;20241;-58
2022/11/12 04:04:08;;;;;;;5.87;5.27;;;9.50;77.10;;;12.23;56.59;103085.63;5102337;28;20242;-57
2022/11/12 04:09:21;;;;;;;8.07;6.10;;;9.60;77.10;;;12.23;56.05;103079.50;5084333;28;20181;-58
2022/11/12 04:11:48;;;;;;;6.63;5.90;;;9.60;76.70;;;12.20;55.99;103085.88;5079598;28;20630;-57
2022/11/12 04:14:15;;;;;;;5.90;5.10;;;9.50;76.40;;;12.16;56.35;103092.38;5083630;28;20597;-57
2022/11/12 04:22:34;;;;;;;5.50;4.77;;;9.40;76.40;;;11.99;56.56;103092.06;5053161;28;20217;-59
2022/11/12 04:27:47;;;;;;;6.27;5.20;;;9.40;77.10;;;11.98;56.84;103091.22;5078963;28;20212;-57
2022/11/12 04:30:17;;;;;;;6.07;5.43;;;9.30;76.70;;;11.97;56.35;103100.13;5096010;28;20242;-55
2022/11/12 04:32:49;;;;;;;8.13;5.63;;;9.30;76.60;;;11.96;56.50;103097.59;5095198;28;20212;-57
2022/11/12 04:35:19;;;;;;;6.53;5.70;;;9.30;77.30;;;12.01;57.02;103090.16;5080730;28;20187;-56
2022/11/12 04:37:47;;;;;;;6.43;5.20;;;9.30;78.10;;;12.03;56.84;103094.34;5075635;28;20185;-56
2022/11/12 04:45:54;;;;;;;6.07;5.43;;;9.40;77.00;;;12.03;56.50;103104.91;5081742;28;20254;-57
2022/11/12 04:48:23;;;;;;;6.03;5.47;;;9.40;77.20;;;12.07;56.60;103098.41;5087613;28;20212;-55
2022/11/12 04:50:56;;;;;;;5.63;4.73;;;9.40;77.20;;;12.11;56.68;103099.00;5093414;28;20212;-54
2022/11/12 04:53:24;;;;;;;7.50;5.83;;;9.40;77.30;;;12.11;56.07;103091.91;5095867;28;20615;-58
2022/11/12 04:55:53;;;;;;;6.70;5.33;;;9.40;76.70;;;12.08;55.73;103097.44;5095903;28;20198;-55
2022/11/12 04:58:21;;;;;;;7.17;5.97;;;9.40;76.30;;;12.03;56.53;103096.97;5098333;28;20232;-56
2022/11/12 05:00:50;;;;;;;7.33;5.97;;;9.40;76.80;;;12.05;56.43;103092.41;5095656;28;20287;-57
2022/11/12 05:03:17;;;;;;;7.90;5.87;;;9.30;76.70;;;12.01;56.19;103084.88;5094688;28;20271;-56
2022/11/12 05:05:46;;;;;;;7.20;6.50;;;9.30;76.30;;;11.92;56.27;103091.75;5095487;28;20188;-57
2022/11/12 05:08:13;;;;;;;6.43;5.63;;;9.30;76.00;;;11.84;56.10;103107.34;5095145;28;20184;-56
2022/11/12 05:10:40;;;;;;;6.80;5.80;;;9.20;76.00;;;11.80;55.99;103102.44;5094968;28;20196;-59
2022/11/12 05:13:06;;;;;;;7.17;6.40;;;9.20;76.30;;;11.71;56.54;103098.75;5090719;28;20218;-56
2022/11/12 05:15:33;;;;;;;6.70;5.80;;;9.10;76.40;;;11.56;57.09;103092.03;5101940;28;20253;-54
2022/11/12 05:18:00;;;;;;;8.23;6.13;;;9.00;76.60;;;11.46;57.40;103089.31;5085752;28;20193;-57
2022/11/12 05:20:27;;;;;;;6.30;5.70;;;9.00;76.90;;;11.41;57.21;103094.09;5090568;28;20192;-58
2022/11/12 05:22:56;;;;;;;7.50;5.77;;;8.90;77.00;;;11.41;57.31;103090.66;5094065;28;20205;-57
2022/11/12 05:25:34;;;;;;;6.60;5.53;;;8.80;77.10;;;11.43;57.13;103092.16;5094713;28;20242;-55
2022/11/12 05:28:01;;;;;;;7.63;5.50;;;8.80;77.40;;;11.45;57.25;103092.91;5094917;28;20246;-59
2022/11/12 05:30:28;;;;;;;6.33;5.50;;;8.80;77.60;;;11.48;57.32;103091.84;5087202;28;20196;-57
2022/11/12 05:32:55;;;;;;;6.50;5.83;;;8.80;77.60;;;11.51;57.52;103086.28;5075772;28;20760;-57
2022/11/12 05:35:22;;;;;;;6.93;6.33;;;8.80;77.80;;;11.52;56.83;103087.97;5074624;28;20193;-56
2022/11/12 05:37:48;;;;;;;6.40;5.73;;;8.80;77.60;;;11.52;57.27;103090.63;5074538;28;20200;-56
2022/11/12 05:40:17;;;;;;;6.97;5.40;;;8.80;77.60;;;11.52;56.65;103080.06;5074212;28;20242;-57
2022/11/12 05:42:44;;;;;;;7.07;6.13;;;8.80;77.60;;;11.54;56.99;103072.88;5093882;28;20212;-57
2022/11/12 05:45:12;;;;;;;7.07;6.33;;;8.80;77.60;;;11.52;57.16;103082.72;5083700;28;20197;-57
2022/11/12 05:47:39;;;;;;;6.80;6.13;;;8.80;77.50;;;11.53;57.21;103084.38;5094417;28;20222;-58
2022/11/12 05:50:07;;;;;;;6.47;5.83;;;8.80;77.80;;;11.56;57.49;103092.88;5094198;28;20233;-58
2022/11/12 05:52:35;;;;;;;8.60;5.73;;;8.80;78.00;;;11.60;57.62;103088.19;5093712;28;20222;-58
2022/11/12 05:55:02;;;;;;;7.23;6.53;;;8.80;78.30;;;11.65;57.14;103087.84;5087049;28;20193;-56
2022/11/12 05:57:30;;;;;;;7.60;5.97;;;8.90;77.90;;;11.57;56.42;103101.66;5073958;28;20524;-60
2022/11/12 05:59:57;;;;;;;9.43;6.57;;;8.90;77.20;;;11.54;57.15;103107.16;5093434;28;20264;-60
2022/11/12 06:02:24;;;;;;;7.10;5.90;;;8.90;77.20;;;11.53;57.58;103108.94;5093819;28;20216;-54
2022/11/12 06:04:51;;;;;;;6.87;6.17;;;8.90;77.90;;;11.57;57.03;103102.50;5093924;28;20199;-57
2022/11/12 06:07:18;;;;;;;6.40;5.80;;;8.90;77.60;;;11.54;56.78;103097.44;5093964;28;20211;-56
2022/11/12 06:09:45;;;;;;;8.20;6.07;;;8.90;77.10;;;11.51;56.61;103110.03;5079572;28;20197;-55
2022/11/12 06:12:12;;;;;;;6.60;5.83;;;8.90;77.00;;;11.51;56.95;103123.22;5077645;28;20205;-57
2022/11/12 06:14:40;;;;;;;8.77;6.23;;;8.90;77.30;;;11.53;57.41;103122.13;5088132;28;20658;-58
2022/11/12 06:17:07;;;;;;;7.20;6.50;;;8.80;77.60;;;11.56;56.98;103110.50;5075666;28;20647;-55
2022/11/12 06:19:34;;;;;;;6.67;5.73;;;8.90;77.50;;;11.57;56.41;103106.91;5093957;28;20199;-56
2022/11/12 06:22:01;;;;;;;6.90;6.03;;;8.90;77.30;;;11.56;56.19;103113.13;5093230;28;20615;-56
2022/11/12 06:24:29;;;;;;;8.73;6.03;;;8.80;76.90;;;11.57;57.28;103114.84;5092298;28;20282;-58
2022/11/12 06:27:01;;;;;;;7.47;6.50;;;8.80;77.80;;;11.63;57.23;103110.84;5080983;28;20197;-60
2022/11/12 06:29:29;;;;;;;7.60;6.77;;;8.90;78.10;;;11.64;56.84;103101.97;5073452;28;20250;-57
2022/11/12 06:31:57;;;;;;;7.47;6.47;;;8.90;77.00;;;11.56;56.35;103095.53;5073081;28;20258;-58
2022/11/12 06:34:24;;;;;;;7.53;5.47;;;8.90;76.60;;;11.51;56.74;103112.66;5077814;28;20580;-59
2022/11/12 06:36:51;;;;;;;6.63;5.70;;;8.90;76.70;;;11.50;56.67;103108.38;5093719;28;20201;-56
2022/11/12 06:39:18;;;;;;;6.97;6.27;;;8.80;77.10;;;11.54;57.18;103107.16;5093819;28;20238;-58
2022/11/12 06:41:45;;;;;;;6.90;5.63;;;8.90;78.10;;;11.63;57.41;103108.22;5075047;28;20217;-57
2022/11/12 06:44:12;;;;;;;7.10;6.40;;;8.90;78.00;;;11.65;56.48;103103.66;5073618;28;20258;-55
2022/11/12 06:46:45;;;;;;;8.67;6.47;;;8.90;77.00;;;11.62;56.42;103117.94;5073496;28;20196;-56
2022/11/12 06:49:13;;;;;;;9.17;6.27;;;8.90;76.80;;;11.62;56.39;103115.31;5079435;28;20208;-55
2022/11/12 06:51:40;;;;;;;8.83;6.00;;;9.00;76.90;;;11.66;56.69;103108.81;5072697;28;20262;-57
2022/11/12 06:54:07;;;;;;;7.53;6.60;;;8.90;77.00;;;11.64;56.17;103113.38;5077398;28;20603;-59
2022/11/12 06:56:34;;;;;;;11.10;6.53;;;9.00;76.90;;;11.61;56.22;103113.63;5093205;28;20200;-57
2022/11/12 06:59:01;;;;;;;9.77;6.63;;;8.90;76.60;;;11.60;56.64;103122.47;5088816;28;20196;-56
2022/11/12 07:01:28;;;;;;;8.90;6.47;;;8.90;76.80;;;11.60;56.42;103122.47;5073184;28;20224;-58
2022/11/12 07:03:55;;;;;;;9.87;6.57;;;8.90;77.10;;;11.63;56.33;103114.31;5093598;28;20188;-58
2022/11/12 07:06:23;;;;;;;10.33;6.60;;;8.90;77.20;;;11.66;56.75;103116.72;5093071;28;20188;-58
2022/11/12 07:08:50;;;;;;;8.07;6.60;;;8.90;77.20;;;11.71;56.19;103133.06;5082380;28;20255;-56
2022/11/12 07:11:18;;;;;;;7.37;6.67;;;8.90;77.30;;;11.74;56.36;103135.47;5071572;28;20212;-56
2022/11/12 07:13:46;;;;;;;7.47;6.77;;;8.90;77.60;;;11.79;56.68;103138.53;5073293;28;20271;-59
2022/11/12 07:16:17;;;;;;;10.23;7.07;;;9.00;77.90;;;11.84;56.33;103133.75;5102955;28;20265;-59
2022/11/12 07:18:45;;;;;;;10.30;7.27;;;9.00;77.40;;;11.89;56.59;103139.50;5079969;28;20737;-59
2022/11/12 07:21:15;;;;;;;8.10;6.63;;;9.10;77.20;;;11.94;56.12;103136.47;5092928;28;20269;-57
2022/11/12 07:23:45;;;;;;;8.57;6.27;;;9.10;77.10;;;11.97;56.27;103145.00;5093358;28;20199;-58
2022/11/12 07:26:16;;;;;;;10.60;6.73;;;9.20;77.50;;;12.06;56.48;103140.75;5093287;28;20609;-58
2022/11/12 07:28:44;;;;;;;8.97;7.20;;;9.30;77.10;;;12.15;55.60;103161.97;5094407;28;20206;-56
2022/11/12 07:31:14;;;;;;;7.83;6.60;;;9.40;76.80;;;12.21;55.61;103158.84;5093129;28;20312;-57
2022/11/12 07:33:41;;;;;;;8.90;6.13;;;9.40;76.10;;;12.24;55.48;103155.94;5094651;28;20270;-58
2022/11/12 07:36:11;;;;;;;8.00;6.33;;;9.40;75.70;;;12.27;55.47;103148.72;5105295;28;20206;-57
2022/11/12 07:38:40;;;;;;;8.20;7.40;;;9.50;75.90;;;12.24;54.85;103145.38;5084800;28;20323;-57
2022/11/12 07:41:13;;;;;;;9.43;7.07;;;9.50;75.20;;;12.21;55.12;103150.94;5093063;28;20270;-58
2022/11/12 07:43:43;;;;;;;9.37;6.53;;;9.50;75.30;;;12.22;55.11;103157.88;5093226;28;20234;-59
2022/11/12 07:46:14;;;;;;;7.77;6.50;;;9.50;75.40;;;12.24;54.98;103160.41;5096210;28;20248;-58
2022/11/12 07:48:43;;;;;;;6.57;5.97;;;9.50;75.70;;;12.29;55.05;103157.38;5096876;28;20536;-59
2022/11/12 07:51:14;;;;;;;7.83;7.03;;;9.50;75.80;;;12.26;54.93;103152.34;5095965;28;20223;-59
2022/11/12 07:53:42;;;;;;;8.17;7.43;;;9.50;75.40;;;12.19;54.80;103155.47;5096056;28;20220;-58
2022/11/12 07:56:14;;;;;;;7.60;6.90;;;9.40;75.90;;;12.14;54.75;103160.31;5097064;28;20189;-56
2022/11/12 07:58:41;;;;;;;8.07;7.20;;;9.40;75.10;;;12.12;55.03;103161.41;5096727;28;20305;-59
2022/11/12 08:01:22;;;;;;;7.73;6.70;;;9.40;75.50;;;12.07;55.13;103164.41;5096527;28;20265;-55
2022/11/12 08:03:49;;;;;;;8.53;7.53;;;9.30;75.40;;;12.01;54.82;103156.13;5095267;28;20267;-58
2022/11/12 08:06:16;;;;;;;7.80;7.00;;;9.30;75.20;;;11.99;55.66;103160.69;5076622;28;20190;-57
2022/11/12 08:08:43;;;;;;;7.43;6.73;;;9.30;75.70;;;12.05;55.46;103170.78;5076742;28;20201;-58
2022/11/12 08:11:11;;;;;;;9.27;7.37;;;9.30;76.20;;;12.08;55.16;103170.50;5081092;28;20241;-59
2022/11/12 08:13:38;;;;;;;7.73;6.93;;;9.30;75.70;;;12.04;55.20;103172.56;5102656;28;20212;-57
2022/11/12 08:16:06;;;;;;;7.53;6.57;;;9.30;75.30;;;11.98;55.28;103173.06;5115125;28;20275;-58
2022/11/12 08:18:33;;;;;;;7.17;6.47;;;9.30;75.10;;;11.91;55.13;103174.50;5095472;28;20255;-57
2022/11/12 08:21:00;;;;;;;7.53;6.83;;;9.20;75.00;;;11.90;55.87;103178.13;5095919;28;20245;-58
2022/11/12 08:23:28;;;;;;;7.90;6.07;;;9.20;75.90;;;11.96;55.64;103164.41;5095831;28;20618;-57
2022/11/12 08:25:57;;;;;;;7.93;7.13;;;9.20;76.30;;;12.02;55.00;103171.88;5095422;28;20254;-58
2022/11/12 08:28:27;;;;;;;7.20;6.53;;;9.20;75.60;;;11.92;54.79;103163.00;5096337;28;20649;-56
2022/11/12 08:30:56;;;;;;;6.87;6.30;;;9.20;74.90;;;11.81;55.37;103159.56;5095464;28;20196;-56
2022/11/12 08:33:23;;;;;;;8.83;6.93;;;9.20;75.10;;;11.77;56.21;103171.28;5081108;28;20214;-57
2022/11/12 08:35:50;;;;;;;8.70;6.90;;;9.20;75.60;;;11.88;56.34;103164.22;5075071;28;20197;-55
2022/11/12 08:38:17;;;;;;;6.83;6.07;;;9.20;76.50;;;12.01;56.15;103169.31;5074056;28;20250;-56
2022/11/12 08:40:44;;;;;;;7.97;6.50;;;9.20;76.50;;;12.13;55.60;103160.41;5074985;28;20595;-58
2022/11/12 08:43:11;;;;;;;6.83;6.13;;;9.30;76.40;;;12.24;55.39;103161.22;5075392;28;20602;-56
2022/11/12 08:45:41;;;;;;;8.00;7.20;;;9.40;76.40;;;12.38;55.46;103167.19;5082605;28;20228;-57
2022/11/12 08:48:13;;;;;;;9.67;6.63;;;9.50;76.60;;;12.55;55.09;103164.00;5074796;28;20231;-58
2022/11/12 08:50:40;;;;;;;7.80;7.00;;;9.60;76.50;;;12.67;54.60;103173.53;5081329;28;20649;-60
2022/11/12 08:53:10;;;;;;;8.10;7.17;;;9.70;76.10;;;12.76;54.73;103168.31;5080614;28;20192;-57
2022/11/12 08:55:37;;;;;;;7.57;6.77;;;9.80;76.00;;;12.82;54.17;103166.94;5080428;28;20219;-56
2022/11/12 08:58:05;;;;;;;7.13;6.43;;;9.90;75.30;;;12.84;54.01;103172.94;5080571;28;20189;-59
2022/11/12 09:00:38;;;;;;;8.50;6.83;;;9.90;75.10;;;12.91;54.36;103176.75;5084736;28;20202;-57
2022/11/12 09:03:12;;;;;;;7.33;6.60;;;10.00;74.30;;;13.02;54.45;103179.34;5095073;28;20204;-58
2022/11/12 09:05:40;;;;;;;7.00;5.93;;;10.10;74.30;;;13.16;54.30;103176.38;5079312;28;20549;-59
2022/11/12 09:08:10;;;;;;;8.20;5.73;;;10.20;74.20;;;13.30;54.04;103183.97;5074578;28;20197;-56
2022/11/12 09:10:37;;;;;;;7.67;6.83;;;10.30;74.20;;;13.42;53.69;103184.72;5072424;28;20205;-59
2022/11/12 09:13:05;;;;;;;7.37;6.60;;;10.50;73.80;;;13.48;53.54;103182.38;5074172;28;20198;-58
2022/11/12 09:15:32;;;;;;;10.47;7.00;;;10.60;73.40;;;13.57;53.23;103186.84;5103312;28;20693;-55
2022/11/12 09:18:11;;;;;;;7.73;6.90;;;10.60;73.00;;;13.69;53.39;103190.28;5101046;28;20239;-56
2022/11/12 09:20:38;;;;;;;8.80;7.03;;;10.70;73.30;;;14.06;52.87;103193.13;5091831;28;20665;-57
2022/11/12 09:23:11;;;;;;;9.07;6.70;;;10.80;73.40;;;14.69;52.76;103197.94;5094550;28;20189;-56
2022/11/12 09:25:39;;;;;;;6.63;6.03;;;11.10;74.40;;;15.38;51.54;103193.19;5094564;28;20196;-57
2022/11/12 09:28:08;;;;;;;8.30;6.03;;;11.40;74.30;;;15.84;50.28;103191.47;5094090;28;20189;-56
2022/11/12 09:30:36;;;;;;;6.87;6.23;;;11.80;73.20;;;16.13;49.72;103192.97;5094561;28;20234;-57
2022/11/12 09:33:04;;;;;;;6.77;6.10;;;12.20;72.30;;;16.31;49.32;103195.63;5092683;28;20216;-58
2022/11/12 09:35:32;;;;;;;6.83;6.17;;;12.50;71.20;;;16.41;48.64;103195.53;5092763;28;20219;-57
2022/11/12 09:37:59;;;;;;;6.57;5.90;;;12.80;70.20;;;16.41;48.08;103195.53;5107260;28;20211;-58
2022/11/12 09:40:44;;;;;;;7.10;6.40;;;13.00;68.10;;;16.40;48.25;103185.91;5099922;28;20196;-57
2022/11/12 09:43:23;;;;;;;8.20;7.10;;;13.10;68.20;;;16.62;47.94;103178.31;5099572;28;20173;-58
2022/11/12 09:45:53;;;;;;;7.50;6.20;;;13.30;68.00;;;16.82;47.98;103174.50;5100455;28;20213;-60
2022/11/12 09:48:50;;;;;;;6.80;5.80;;;13.40;68.00;;;16.86;47.23;103180.34;5087065;28;20197;-58
2022/11/12 09:51:26;;;;;;;7.47;6.40;;;13.60;67.40;;;16.86;47.45;103181.16;5078424;28;20252;-58
2022/11/12 09:53:56;;;;;;;8.40;6.23;;;13.70;66.90;;;16.87;46.52;103182.00;5078437;28;20205;-59
2022/11/12 09:56:27;;;;;;;5.80;5.30;;;13.80;65.40;;;16.96;47.21;103181.06;5077473;28;20193;-57
2022/11/12 09:58:54;;;;;;;7.07;6.30;;;13.90;65.90;;;17.23;46.94;103188.91;5077659;28;20192;-60
2022/11/12 10:01:37;;;;;;;7.70;6.13;;;14.00;66.20;;;17.58;46.70;103191.44;5082097;28;20216;-58
2022/11/12 10:04:27;;;;;;;6.73;5.93;;;14.30;66.40;;;17.87;45.86;103182.22;5100690;28;20213;-59
2022/11/12 10:07:05;;;;;;;9.53;6.20;;;14.50;65.40;;;17.99;45.42;103176.44;5078254;28;20628;-58
2022/11/12 10:09:47;;;;;;;8.23;6.03;;;14.80;64.10;;;17.97;44.64;103177.59;5077408;28;20276;-58
2022/11/12 10:12:30;;;;;;;10.23;8.37;;;15.00;62.20;;;17.95;44.71;103174.22;5077187;28;20213;-58
2022/11/12 10:18:38;;;;;;;6.70;5.43;;;15.10;61.40;;;17.79;44.72;103190.16;5097852;28;20232;-58
2022/11/12 10:21:21;;;;;;;6.37;5.77;;;15.00;61.50;;;17.74;44.69;103187.16;5077708;28;20213;-57
2022/11/12 10:23:52;;;;;;;6.10;5.50;;;15.00;61.70;;;17.70;44.67;103183.16;5078630;28;20240;-57
2022/11/12 10:26:23;;;;;;;6.67;6.07;;;14.90;61.40;;;17.67;44.84;103181.63;5083137;28;20201;-54
2022/11/12 10:28:56;;;;;;;5.53;5.07;;;14.80;61.40;;;17.66;44.87;103189.81;5097323;28;20293;-58
2022/11/12 10:31:23;;;;;;;8.20;5.47;;;14.80;61.70;;;17.66;45.07;103184.47;5099621;28;20269;-58
2022/11/12 10:34:01;;;;;;;6.87;5.40;;;14.80;61.90;;;17.69;44.91;103189.47;5093287;28;20196;-57
2022/11/12 10:36:32;;;;;;;7.63;5.17;;;14.70;62.00;;;17.72;44.81;103192.66;5078399;28;20216;-59
2022/11/12 10:39:01;;;;;;;5.60;5.03;;;14.70;62.30;;;17.72;44.91;103182.00;5082482;28;20253;-57
2022/11/12 10:41:31;;;;;;;6.23;5.63;;;14.80;62.40;;;17.67;44.69;103175.47;5086134;28;20242;-56
2022/11/12 10:44:01;;;;;;;8.47;6.37;;;14.70;62.10;;;17.59;44.73;103179.78;5098637;28;20238;-56
2022/11/12 10:46:32;;;;;;;7.93;6.10;;;14.70;61.80;;;17.50;44.83;103180.72;5097712;28;20259;-58